Laurel Fork, Virginia
Current Conditions -  °F | °C
As of 9:15 AM on Wednesday 26 Nov 2014 (Local Time) from KHLX Reporting Station
Moderate Snow Moderate Snow  
Wind Chill: 26°   Ceiling: 300
Heat Index: 32°   Visibility: 0.5mi
Dew Point: 32°   Wind: 6mph
Humidity: 100%   Direction: 350°N
Pressure: 29.97"   Gusts: NA
Location:  36.72°N, 80.52°W
Report Text: KHLX 261415Z AUTO 35005KT 1/2SM SN OVC003 00/00 A2997 RMK AO2 T00000000
Loading
Personal Weather Stations






























Interactive Weather Map New forecast layout! Learn more

10-Day Weather Forecast

Advertisements
Track Severe Weather on mobile